.
WxDataArchive / Data Records for 2006-01-29
2006-01-28 January 2006 2006-01-30

Data Records for Sunday, 29 January 2006

Time	Temp	Chill	HIndex	Humid	Dewpt	 Wind 	HiWind	WindDir	Rain 	Barom 
-----	----	-----	------	-----	-----	------	------	-------	-----	----- 
00:00	45.4	45.4	45.4	82	40.2	0	1	112	0.00	29.773 
00:05	45.2	45.2	45.2	83	40.3	0	1	112	0.00	29.773 
00:10	45.2	45.2	45.2	83	40.3	0	1	112	0.00	29.773 
00:15	45.1	45.1	45.1	84	40.6	0	1	112	0.00	29.764 
00:20	45.1	45.1	45.1	84	40.6	0	1	112	0.01	29.764 
00:25	44.9	44.9	44.9	85	40.7	0	2	112	0.00	29.764 
00:30	44.9	44.9	44.9	85	40.7	1	2	112	0.00	29.749 
00:35	44.9	44.9	44.9	85	40.7	1	2	112	0.00	29.749 
00:40	44.8	44.8	44.8	86	40.9	0	1	112	0.01	29.749 
00:45	44.8	44.8	44.8	86	40.9	0	1	112	0.00	29.746 
00:50	44.8	44.8	44.8	86	40.9	0	1	90	0.01	29.746 
00:55	44.8	44.8	44.8	87	41.2	0	2	112	0.01	29.746 
01:00	44.8	44.8	44.8	87	41.2	1	2	112	0.01	29.736 
01:05	44.9	44.9	44.9	86	41.0	1	4	112	0.01	29.736 
01:10	45.1	45.1	45.1	86	41.2	2	6	112	0.01	29.736 
01:15	45.2	45.2	45.2	86	41.3	3	7	112	0.02	29.722 
01:20	45.4	45.4	45.4	86	41.5	2	6	112	0.01	29.722 
01:25	45.4	45.4	45.4	87	41.8	3	6	90	0.00	29.722 
01:30	45.4	45.4	45.4	87	41.8	2	5	112	0.01	29.707 
01:35	45.2	45.2	45.2	87	41.6	2	5	135	0.01	29.707 
01:40	45.2	45.2	45.2	87	41.6	3	9	112	0.01	29.707 
01:45	45.2	45.2	45.2	87	41.6	3	6	90	0.01	29.680 
01:50	45.2	45.2	45.2	88	41.9	3	6	90	0.01	29.680 
01:55	45.1	45.1	45.1	88	41.8	2	5	112	0.01	29.680 
02:00	45.1	45.1	45.1	89	42.1	3	9	112	0.01	29.665 
02:05	45.1	45.1	45.1	89	42.1	2	6	90	0.01	29.665 
02:10	45.1	45.1	45.1	89	42.1	2	7	112	0.01	29.665 
02:15	44.9	44.9	44.9	90	42.1	2	5	90	0.01	29.649 
02:20	45.1	45.1	45.1	90	42.3	2	5	112	0.00	29.649 
02:25	45.1	45.1	45.1	90	42.3	2	6	112	0.01	29.649 
02:30	45.1	45.1	45.1	91	42.6	3	6	90	0.01	29.634 
02:35	45.2	45.2	45.2	91	42.7	3	5	90	0.01	29.634 
02:40	45.4	45.4	45.4	91	42.9	3	7	90	0.01	29.634 
02:45	45.4	45.4	45.4	91	42.9	3	6	90	0.00	29.619 
02:50	45.5	45.5	45.5	91	43.0	2	6	90	0.00	29.619 
02:55	45.7	45.7	45.7	91	43.2	2	5	112	0.01	29.619 
03:00	45.8	45.8	45.8	91	43.3	2	5	90	0.01	29.602 
03:05	46.0	46.0	46.0	91	43.5	2	5	90	0.00	29.602 
03:10	46.0	46.0	46.0	91	43.5	2	4	112	0.01	29.602 
03:15	46.1	46.1	46.1	91	43.6	3	5	112	0.00	29.589 
03:20	46.2	46.2	46.2	90	43.4	3	7	112	0.01	29.589 
03:25	46.5	44.8	46.5	90	43.7	4	13	90	0.01	29.589 
03:30	46.7	46.7	46.7	90	43.9	3	11	112	0.01	29.568 
03:35	46.8	45.2	46.8	89	43.7	4	11	90	0.01	29.568 
03:40	47.0	45.4	47.0	89	43.9	4	12	90	0.01	29.568 
03:45	47.0	44.7	47.0	89	43.9	5	11	90	0.01	29.550 
03:50	47.0	45.4	47.0	89	43.9	4	9	90	0.00	29.550 
03:55	47.0	44.7	47.0	88	43.6	5	13	90	0.01	29.550 
04:00	47.0	45.4	47.0	89	43.9	4	8	90	0.00	29.535 
04:05	47.0	45.4	47.0	89	43.9	4	10	90	0.01	29.535 
04:10	46.8	46.8	46.8	89	43.7	3	6	90	0.00	29.535 
04:15	46.7	45.1	46.7	89	43.6	4	10	90	0.00	29.525 
04:20	46.7	45.1	46.7	88	43.3	4	10	90	0.01	29.525 
04:25	46.5	44.8	46.5	89	43.4	4	7	90	0.01	29.525 
04:30	46.5	44.1	46.5	88	43.1	5	13	90	0.00	29.509 
04:35	46.5	44.8	46.5	89	43.4	4	10	90	0.01	29.509 
04:40	46.5	44.1	46.5	88	43.1	5	12	90	0.00	29.509 
04:45	46.5	44.1	46.5	88	43.1	5	13	90	0.01	29.494 
04:50	46.5	44.1	46.5	88	43.1	5	12	68	0.00	29.494 
04:55	46.5	46.5	46.5	88	43.1	3	10	90	0.00	29.494 
05:00	46.5	44.1	46.5	88	43.1	5	12	90	0.00	29.483 
05:05	46.5	44.8	46.5	88	43.1	4	7	90	0.01	29.483 
05:10	46.7	45.1	46.7	88	43.3	4	13	90	0.00	29.483 
05:15	46.8	45.2	46.8	88	43.4	4	9	90	0.00	29.472 
05:20	47.0	44.7	47.0	87	43.3	5	12	90	0.00	29.472 
05:25	47.0	45.4	47.0	88	43.6	4	10	90	0.01	29.472 
05:30	47.1	45.5	47.1	88	43.7	4	10	68	0.00	29.456 
05:35	47.1	45.5	47.1	88	43.7	4	12	90	0.00	29.456 
05:40	47.3	45.0	47.3	88	43.9	5	12	90	0.00	29.456 
05:45	47.4	45.9	47.4	88	44.0	4	9	90	0.00	29.444 
05:50	47.4	45.9	47.4	88	44.0	4	9	90	0.00	29.444 
05:55	47.7	46.2	47.7	88	44.3	4	10	68	0.00	29.444 
06:00	47.7	47.7	47.7	88	44.3	3	11	90	0.01	29.428 
06:05	47.7	46.2	47.7	89	44.6	4	11	90	0.00	29.428 
06:10	47.7	46.2	47.7	89	44.6	4	11	90	0.00	29.428 
06:15	47.7	46.2	47.7	90	44.9	4	12	68	0.00	29.418 
06:20	47.7	46.2	47.7	90	44.9	4	12	90	0.00	29.418 
06:25	47.7	47.7	47.7	90	44.9	3	8	90	0.01	29.418 
06:30	47.7	45.5	47.7	90	44.9	5	14	90	0.00	29.407 
06:35	47.7	46.2	47.7	90	44.9	4	11	90	0.01	29.407 
06:40	47.7	45.5	47.7	91	45.2	5	11	90	0.00	29.407 
06:45	47.7	46.2	47.7	91	45.2	4	11	90	0.01	29.398 
06:50	47.7	46.2	47.7	91	45.2	4	11	90	0.00	29.398 
06:55	47.9	46.4	47.9	91	45.4	4	9	68	0.01	29.398 
07:00	47.9	45.8	47.9	91	45.4	5	12	90	0.01	29.395 
07:05	48.0	45.9	48.0	91	45.5	5	12	90	0.01	29.395 
07:10	48.2	45.5	48.2	91	45.7	6	13	90	0.00	29.395 
07:15	48.2	46.8	48.2	91	45.7	4	12	90	0.00	29.393 
07:20	48.2	46.1	48.2	91	45.7	5	13	90	0.01	29.393 
07:25	48.2	46.8	48.2	91	45.7	4	11	90	0.00	29.393 
07:30	48.2	48.2	48.2	91	45.7	3	11	90	0.00	29.386 
07:35	48.2	48.2	48.2	91	45.7	3	10	90	0.00	29.386 
07:40	48.3	48.3	48.3	91	45.8	3	10	90	0.00	29.386 
07:45	48.3	48.3	48.3	91	45.8	3	7	90	0.01	29.381 
07:50	48.3	48.3	48.3	92	46.1	3	7	90	0.01	29.381 
07:55	48.5	47.1	48.5	92	46.3	4	12	45	0.01	29.381 
08:00	48.5	48.5	48.5	92	46.3	3	12	270	0.01	29.378 
08:05	48.6	48.6	48.6	92	46.4	3	6	248	0.01	29.378 
08:10	48.8	48.8	48.8	92	46.6	3	14	270	0.01	29.378 
08:15	48.8	48.8	48.8	92	46.6	3	7	338	0.00	29.372 
08:20	48.9	48.9	48.9	92	46.7	3	10	270	0.01	29.372 
08:25	48.9	48.9	48.9	92	46.7	2	9	270	0.00	29.372 
08:30	49.1	49.1	49.1	91	46.6	3	10	90	0.00	29.368 
08:35	49.1	49.1	49.1	92	46.9	3	10	0	0.00	29.368 
08:40	49.2	47.9	49.2	92	47.0	4	14	270	0.01	29.368 
08:45	49.2	47.9	49.2	92	47.0	4	10	225	0.00	29.369 
08:50	49.4	49.4	49.4	91	46.9	3	6	248	0.00	29.369 
08:55	49.4	49.4	49.4	92	47.2	3	7	248	0.01	29.369 
09:00	49.4	49.4	49.4	92	47.2	3	6	248	0.01	29.372 
09:05	49.4	49.4	49.4	92	47.2	3	10	270	0.01	29.372 
09:10	49.5	47.6	49.5	92	47.3	5	20	248	0.01	29.372 
09:15	49.8	48.0	49.8	91	47.3	5	10	248	0.01	29.371 
09:20	49.9	48.8	49.9	91	47.4	4	9	248	0.01	29.371 
09:25	49.9	48.8	49.9	91	47.4	4	11	248	0.00	29.371 
09:30	50.1	50.1	50.1	91	47.6	3	12	248	0.00	29.365 
09:35	50.1	50.1	50.1	90	47.3	3	7	248	0.00	29.365 
09:40	50.1	50.1	50.1	90	47.3	4	7	248	0.00	29.365 
09:45	50.2	50.2	50.2	89	47.1	4	10	248	0.00	29.360 
09:50	50.4	50.4	50.4	89	47.3	4	6	248	0.00	29.360 
09:55	50.2	50.2	50.2	89	47.1	3	10	248	0.00	29.360 
10:00	50.2	50.2	50.2	90	47.4	2	5	248	0.00	29.356 
10:05	50.2	50.2	50.2	90	47.4	2	5	0	0.00	29.356 
10:10	50.1	50.1	50.1	90	47.3	2	5	270	0.00	29.356 
10:15	50.1	50.1	50.1	91	47.6	3	10	248	0.00	29.359 
10:20	50.2	50.2	50.2	91	47.7	3	10	248	0.01	29.359 
10:25	50.2	50.2	50.2	90	47.4	4	13	270	0.00	29.359 
10:30	50.4	50.4	50.4	90	47.6	5	12	248	0.00	29.362 
10:35	50.4	50.4	50.4	90	47.6	7	14	248	0.01	29.362 
10:40	50.1	50.1	50.1	88	46.7	8	17	248	0.01	29.362 
10:45	49.8	46.9	49.8	85	45.5	7	14	270	0.00	29.361 
10:50	49.5	46.6	49.5	85	45.2	7	14	248	0.00	29.361 
10:55	49.4	47.0	49.4	86	45.4	6	14	248	0.00	29.361 
11:00	49.4	46.5	49.4	86	45.4	7	16	270	0.00	29.370 
11:05	49.5	46.6	49.5	86	45.5	7	18	248	0.00	29.370 
11:10	49.8	47.4	49.8	86	45.8	6	17	248	0.00	29.370 
11:15	49.9	48.1	49.9	85	45.6	5	11	270	0.00	29.373 
11:20	49.9	47.5	49.9	85	45.6	6	13	248	0.00	29.373 
11:25	49.9	47.5	49.9	85	45.6	6	14	248	0.00	29.373 
11:30	49.9	47.5	49.9	85	45.6	6	11	270	0.00	29.380 
11:35	49.8	48.0	49.8	86	45.8	5	12	248	0.00	29.380 
11:40	49.8	46.9	49.8	86	45.8	7	16	270	0.00	29.380 
11:45	49.9	47.5	49.9	86	45.9	6	15	248	0.00	29.382 
11:50	49.9	47.5	49.9	87	46.2	6	16	248	0.00	29.382 
11:55	50.2	50.2	50.2	87	46.5	5	10	248	0.00	29.382 
12:00	50.5	50.5	50.5	86	46.5	6	12	270	0.00	29.384 
12:05	50.7	50.7	50.7	85	46.4	5	13	270	0.00	29.384 
12:10	51.0	51.0	51.0	85	46.7	6	14	248	0.00	29.384 
12:15	51.0	51.0	51.0	85	46.7	6	15	248	0.00	29.381 
12:20	50.7	50.7	50.7	85	46.4	7	13	248	0.00	29.381 
12:25	51.1	51.1	51.1	85	46.7	7	13	270	0.00	29.381 
12:30	51.3	51.3	51.3	84	46.6	7	16	248	0.00	29.375 
12:35	51.1	51.1	51.1	84	46.4	8	17	270	0.00	29.375 
12:40	50.8	50.8	50.8	84	46.1	6	14	248	0.00	29.375 
12:45	50.8	50.8	50.8	85	46.5	6	11	270	0.00	29.378 
12:50	50.7	50.7	50.7	85	46.4	7	19	270	0.00	29.378 
12:55	50.7	50.7	50.7	85	46.4	7	14	270	0.00	29.378 
13:00	50.8	50.8	50.8	85	46.5	7	14	270	0.00	29.383 
13:05	51.0	51.0	51.0	85	46.7	9	17	248	0.00	29.383 
13:10	51.1	51.1	51.1	84	46.4	8	17	248	0.00	29.383 
13:15	51.1	51.1	51.1	84	46.4	6	12	248	0.00	29.384 
13:20	51.1	51.1	51.1	84	46.4	7	13	248	0.00	29.384 
13:25	51.1	51.1	51.1	84	46.4	7	13	270	0.00	29.384 
13:30	51.0	51.0	51.0	84	46.3	6	13	270	0.00	29.385 
13:35	51.0	51.0	51.0	85	46.7	6	13	248	0.00	29.385 
13:40	50.8	50.8	50.8	86	46.8	7	16	248	0.00	29.385 
13:45	50.8	50.8	50.8	85	46.5	9	21	248	0.00	29.389 
13:50	50.8	50.8	50.8	85	46.5	8	16	270	0.00	29.389 
13:55	51.0	51.0	51.0	84	46.3	6	15	270	0.00	29.389 
14:00	51.0	51.0	51.0	84	46.3	6	17	248	0.00	29.394 
14:05	51.1	51.1	51.1	83	46.1	8	18	270	0.00	29.394 
14:10	51.6	51.6	51.6	81	46.0	8	20	270	0.00	29.394 
14:15	51.7	51.7	51.7	81	46.1	7	19	248	0.00	29.393 
14:20	51.9	51.9	51.9	80	45.9	9	19	270	0.00	29.393 
14:25	52.0	52.0	52.0	80	46.0	8	21	270	0.00	29.393 
14:30	52.0	52.0	52.0	80	46.0	7	18	270	0.00	29.399 
14:35	52.0	52.0	52.0	79	45.7	7	19	248	0.00	29.399 
14:40	52.0	52.0	52.0	78	45.4	7	15	270	0.00	29.399 
14:45	52.2	52.2	52.2	77	45.2	9	18	248	0.00	29.401 
14:50	52.3	52.3	52.3	77	45.3	7	17	270	0.00	29.401 
14:55	52.6	52.6	52.6	77	45.6	6	14	270	0.00	29.401 
15:00	52.9	52.9	52.9	77	45.9	7	17	248	0.00	29.413 
15:05	52.9	52.9	52.9	76	45.5	7	15	270	0.00	29.413 
15:10	52.8	52.8	52.8	75	45.1	9	21	270	0.00	29.413 
15:15	52.8	52.8	52.8	76	45.4	7	14	270	0.00	29.414 
15:20	52.6	52.6	52.6	75	44.9	9	20	248	0.00	29.414 
15:25	52.6	52.6	52.6	76	45.3	6	13	270	0.00	29.414 
15:30	52.5	52.5	52.5	75	44.8	9	18	270	0.00	29.416 
15:35	52.5	52.5	52.5	76	45.2	8	18	270	0.00	29.416 
15:40	52.5	52.5	52.5	76	45.2	6	17	270	0.00	29.416 
15:45	52.5	52.5	52.5	76	45.2	8	16	248	0.00	29.426 
15:50	52.5	52.5	52.5	76	45.2	7	15	270	0.00	29.426 
15:55	52.3	52.3	52.3	76	45.0	5	14	270	0.00	29.426 
16:00	52.2	52.2	52.2	76	44.9	7	16	248	0.00	29.432 
16:05	52.2	52.2	52.2	75	44.5	10	25	248	0.00	29.432 
16:10	52.0	52.0	52.0	76	44.7	10	20	248	0.00	29.432 
16:15	52.0	52.0	52.0	76	44.7	8	16	270	0.00	29.443 
16:20	52.2	52.2	52.2	76	44.9	6	15	270	0.00	29.443 
16:25	52.2	52.2	52.2	75	44.5	9	22	270	0.00	29.443 
16:30	52.0	52.0	52.0	75	44.3	10	18	270	0.00	29.447 
16:35	52.0	52.0	52.0	75	44.3	9	20	270	0.00	29.447 
16:40	51.9	51.9	51.9	76	44.6	7	15	270	0.00	29.447 
16:45	51.6	51.6	51.6	76	44.3	9	16	248	0.00	29.458 
16:50	50.8	50.8	50.8	78	44.2	9	18	270	0.00	29.458 
16:55	50.1	50.1	50.1	79	43.8	8	18	270	0.00	29.458 
17:00	49.8	46.1	49.8	78	43.2	9	25	270	0.00	29.478 
17:05	49.6	46.3	49.6	78	43.0	8	18	270	0.00	29.478 
17:10	49.5	45.8	49.5	78	42.9	9	23	270	0.00	29.478 
17:15	49.2	46.2	49.2	78	42.6	7	15	270	0.00	29.484 
17:20	49.1	45.3	49.1	78	42.5	9	22	270	0.00	29.484 
17:25	48.9	46.4	48.9	79	42.7	6	16	270	0.00	29.484 
17:30	48.8	45.7	48.8	79	42.6	7	20	270	0.00	29.496 
17:35	48.8	46.2	48.8	79	42.6	6	15	248	0.00	29.496 
17:40	48.6	47.3	48.6	80	42.7	4	9	270	0.00	29.496 
17:45	48.5	46.5	48.5	81	42.9	5	16	270	0.00	29.510 
17:50	48.3	45.6	48.3	81	42.7	6	13	270	0.00	29.510 
17:55	48.2	45.5	48.2	82	43.0	6	16	248	0.00	29.510 
18:00	48.0	45.3	48.0	82	42.8	6	15	270	0.00	29.516 
18:05	47.9	45.2	47.9	83	43.0	6	14	270	0.00	29.516 
18:10	47.7	44.9	47.7	84	43.1	6	14	270	0.00	29.516 
18:15	47.6	45.4	47.6	85	43.3	5	13	270	0.00	29.527 
18:20	47.3	45.8	47.3	86	43.3	4	9	270	0.00	29.527 
18:25	47.1	44.8	47.1	85	42.8	5	12	270	0.00	29.527 
18:30	47.3	45.0	47.3	84	42.7	5	13	270	0.00	29.531 
18:35	47.4	44.6	47.4	82	42.2	6	14	270	0.00	29.531 
18:40	47.4	44.6	47.4	82	42.2	6	16	270	0.00	29.531 
18:45	47.3	45.0	47.3	83	42.4	5	12	248	0.00	29.531 
18:50	47.3	44.5	47.3	83	42.4	6	14	270	0.00	29.531 
18:55	47.3	44.5	47.3	83	42.4	6	14	270	0.00	29.531 
19:00	47.3	43.9	47.3	83	42.4	7	14	248	0.00	29.543 
19:05	47.1	44.2	47.1	83	42.2	6	15	270	0.00	29.543 
19:10	47.3	44.5	47.3	82	42.1	6	15	270	0.00	29.543 
19:15	47.4	43.6	47.4	82	42.2	8	16	270	0.00	29.543 
19:20	47.4	44.1	47.4	82	42.2	7	21	270	0.00	29.543 
19:25	47.3	43.9	47.3	82	42.1	7	17	270	0.00	29.543 
19:30	47.3	43.5	47.3	82	42.1	8	17	270	0.00	29.549 
19:35	47.1	44.8	47.1	82	41.9	5	14	270	0.00	29.549 
19:40	47.1	45.5	47.1	82	41.9	4	11	270	0.00	29.549 
19:45	47.1	44.8	47.1	82	41.9	5	11	270	0.00	29.559 
19:50	47.1	44.8	47.1	82	41.9	5	11	270	0.00	29.559 
19:55	47.1	44.8	47.1	82	41.9	5	16	270	0.00	29.559 
20:00	47.1	44.2	47.1	82	41.9	6	14	270	0.00	29.557 
20:05	47.1	45.5	47.1	82	41.9	4	10	248	0.00	29.557 
20:10	47.0	44.1	47.0	82	41.8	6	12	248	0.00	29.557 
20:15	47.0	44.7	47.0	82	41.8	5	14	270	0.00	29.563 
20:20	47.1	43.7	47.1	80	41.3	7	18	270	0.00	29.563 
20:25	47.1	44.8	47.1	81	41.6	5	10	270	0.00	29.563 
20:30	47.0	44.1	47.0	80	41.2	6	17	270	0.00	29.567 
20:35	47.0	43.1	47.0	79	40.8	8	20	248	0.00	29.567 
20:40	47.0	43.6	47.0	80	41.2	7	13	270	0.00	29.567 
20:45	46.8	43.9	46.8	81	41.3	6	13	270	0.00	29.569 
20:50	46.8	43.9	46.8	81	41.3	6	12	248	0.00	29.569 
20:55	46.8	43.3	46.8	81	41.3	7	20	270	0.00	29.569 
21:00	46.8	44.5	46.8	81	41.3	5	16	270	0.00	29.573 
21:05	46.8	43.3	46.8	80	41.0	7	12	270	0.00	29.573 
21:10	46.8	42.5	46.8	79	40.6	9	21	248	0.00	29.573 
21:15	46.8	43.3	46.8	79	40.6	7	15	248	0.00	29.573 
21:20	46.7	43.7	46.7	79	40.5	6	15	248	0.00	29.573 
21:25	46.7	43.7	46.7	80	40.9	6	12	248	0.00	29.573 
21:30	46.7	43.7	46.7	80	40.9	6	14	248	0.00	29.579 
21:35	46.5	43.5	46.5	80	40.7	6	15	270	0.00	29.579 
21:40	46.5	44.1	46.5	81	41.0	5	14	248	0.00	29.579 
21:45	46.4	44.7	46.4	80	40.6	4	11	270	0.00	29.587 
21:50	46.5	43.5	46.5	80	40.7	6	15	270	0.00	29.587 
21:55	46.4	43.4	46.4	79	40.2	6	12	270	0.00	29.587 
22:00	46.4	44.7	46.4	80	40.6	4	11	270	0.00	29.587 
22:05	46.2	44.5	46.2	80	40.4	4	9	270	0.00	29.587 
22:10	46.2	43.8	46.2	79	40.1	5	16	270	0.00	29.587 
22:15	46.1	43.6	46.1	79	40.0	5	11	270	0.00	29.589 
22:20	46.0	46.0	46.0	80	40.2	3	7	270	0.00	29.589 
22:25	45.8	45.8	45.8	81	40.3	3	8	248	0.00	29.589 
22:30	45.7	42.5	45.7	80	39.9	6	14	270	0.00	29.591 
22:35	45.7	43.2	45.7	80	39.9	5	12	270	0.00	29.591 
22:40	45.7	43.2	45.7	80	39.9	5	14	270	0.00	29.591 
22:45	45.5	45.5	45.5	79	39.4	3	8	270	0.00	29.594 
22:50	45.4	42.8	45.4	79	39.3	5	15	270	0.00	29.594 
22:55	45.4	43.6	45.4	80	39.6	4	11	248	0.00	29.594 
23:00	45.2	43.3	45.2	81	39.7	4	10	248	0.00	29.593 
23:05	44.9	44.9	44.9	81	39.4	3	7	270	0.00	29.593 
23:10	44.9	44.9	44.9	82	39.7	3	7	248	0.00	29.593 
23:15	44.8	42.9	44.8	82	39.6	4	8	248	0.00	29.595 
23:20	44.6	44.6	44.6	83	39.8	3	10	270	0.00	29.595 
23:25	44.6	42.6	44.6	83	39.8	4	11	270	0.00	29.595 
23:30	44.5	44.5	44.5	84	40.0	2	6	270	0.00	29.597 
23:35	44.5	42.5	44.5	84	40.0	4	10	248	0.00	29.597 
23:40	44.5	44.5	44.5	84	40.0	3	9	270	0.00	29.597 
23:45	44.3	42.3	44.3	85	40.1	4	7	248	0.00	29.605 
23:50	44.3	44.3	44.3	85	40.1	3	9	270	0.00	29.605 
23:55	44.2	42.2	44.2	85	40.0	4	9	248	0.00	29.605 

CoCoRaHS
IN-AL-39
A2 Web Hosting
Creative Commons License
GoDaddy
Look for:

loaded 2017-12-11 06:54:37 • last modified 2010-11-18 10:43:29
Privacy PolicyDisclaimer
• wx.awcolley.com is powered by PmWiki v.2002016 •
• all content (unless otherwise noted) © 2017 A W Colley